KCRS

Details ICAO KCRS
Name C DAVID CAMPBELL FLD CORSICANA MUNI
Region United States
Timezone America/Chicago (UTC-6.0)
Plans Departing 4
Arriving 6
Stats Elevation 449 ft / 137 m (AMSL)
Location 32.028236° -96.401292°
Runways 2
Magnetic Variation 3.057° E
Sunrise 2017-12-18 13:22:05 UTC / 2017-12-18 07:22:05 Local
Sunset 2017-12-18 23:25:19 UTC / 2017-12-18 17:25:19 Local
Advertisement - Login to hide

Runways

ID Width Length Bearing (true) Bearing (mag) Surface Threshold Offset Overrun Length
02 75 ft / 23 m 3,208 ft / 978 m 21.90° 18.84° Grass 0 ft / 0 m 0 ft / 0 m
14 75 ft / 23 m 5,006 ft / 1,526 m 145.19° 142.13° Asphalt 0 ft / 0 m 0 ft / 0 m
20 75 ft / 23 m 3,208 ft / 978 m 201.90° 198.84° Grass 0 ft / 0 m 0 ft / 0 m
32 75 ft / 23 m 5,006 ft / 1,526 m 325.19° 322.13° Asphalt 0 ft / 0 m 0 ft / 0 m

Map

Weather


0- 5 10 15 20 25 30 35+ Temperature / ° C

Clouds and Precipitation
Forecast for 2017-12-18 18:00 UTC. Updated an hour ago

Ground ~20,000 ft ~40,000 ft Winds

METAR

KCRS 181753Z AUTO 00000KT 1/2SM FG OVC002 10/10 A3021 RMK AO2 SLP230 T01000100 10100 20083 58003

TAF

Not found

Frequencies

Recorded 120.67 MHz ASOS
Unicom 122.80 MHz CTAF/UNICOM
Warning: Do not use this data for real-world aviation or navigation. No guarantee of current accuracy is given.